Terminal Aerodrome Forecast
Issued by NWS

Home | Current Version | Previous Version | Graphics & Text | Print | Product List | Glossary On
Versions: 1 2 3 4 5 6 7 8 9 10 11 12 13 14 15 16 17
571
FTUS41 KCLE 031959 AAA
TAFFDY
TAF AMD
KFDY 031959Z 0320/0418 26016G26KT P6SM BKN035
      TEMPO 0321/0324 BKN030
     FM040000 25014KT P6SM OVC022=

USA.gov is the U.S. government's official web portal to all federal, state and local government web resources and services.